Jasper, Minnesota
Current Conditions -  °F | °C
As of 8:34 PM on Friday 28 Nov 2014 (Local Time) from KPQN Reporting Station
Clear Clear  
Wind Chill: 16°   Ceiling: Unl
Heat Index: 25°   Visibility: 7mi
Dew Point: 23°   Wind: 8mph
Humidity: 93%   Direction: 120°ESE
Pressure: 29.63"   Gusts: NA
Location:  43.85°N, 96.4°W
Report Text: KPQN 290234Z AUTO 12007KT 7SM CLR M04/M05 A2963 RMK AO2
Loading
Personal Weather Stations






























Interactive Weather Map New forecast layout! Learn more

10-Day Weather Forecast

Advertisements
Track Severe Weather on mobile